Time;durP1;ratioP1;P1;durP2;ratioP2;P2;SDS_P1;SDS_P2;PMS_P1;PMS_P2;Temp;Humidity;BMP_temperature;BMP_pressure;BME280_temperature;BME280_humidity;BME280_pressure;Samples;Min_cycle;Max_cycle;Signal;HPM_P1;HPM_P2
2023/12/14 00:01:25;;;;;;;46.50;24.30;;;;;;;2.35;82.71;97670.54;108346;1257;94480;-71
2023/12/14 00:03:53;;;;;;;45.50;25.30;;;;;;;2.33;82.60;97668.19;108398;1257;110062;-72
2023/12/14 00:06:21;;;;;;;49.20;26.80;;;;;;;2.35;82.79;97672.13;108389;1257;94988;-72
2023/12/14 00:08:49;;;;;;;44.70;23.40;;;;;;;2.34;82.79;97675.80;108377;1257;106955;-72
2023/12/14 00:11:17;;;;;;;45.00;24.00;;;;;;;2.35;82.83;97677.48;108376;1257;94436;-72
2023/12/14 00:13:45;;;;;;;39.60;22.30;;;;;;;2.35;82.93;97680.67;108437;1257;94634;-72
2023/12/14 00:16:13;;;;;;;39.80;22.10;;;;;;;2.37;82.72;97681.77;108429;1257;110019;-71
2023/12/14 00:18:40;;;;;;;42.50;22.70;;;;;;;2.40;82.80;97685.11;108337;1257;95034;-71
2023/12/14 00:21:08;;;;;;;40.40;21.00;;;;;;;2.42;82.65;97689.89;108432;1257;107675;-72
2023/12/14 00:23:36;;;;;;;44.00;21.90;;;;;;;2.45;82.83;97693.70;108277;1257;94619;-72
2023/12/14 00:26:04;;;;;;;41.50;21.80;;;;;;;2.47;83.07;97693.43;108457;1257;94273;-72
2023/12/14 00:28:32;;;;;;;45.10;23.10;;;;;;;2.47;82.74;97694.15;108381;1257;108750;-71
2023/12/14 00:31:01;;;;;;;42.20;22.40;;;;;;;2.47;82.86;97701.43;108382;1256;95523;-72
2023/12/14 00:33:29;;;;;;;44.60;22.50;;;;;;;2.47;82.95;97705.15;108413;1257;107041;-72
2023/12/14 00:35:57;;;;;;;49.10;22.90;;;;;;;2.49;82.99;97706.25;108316;1257;94359;-72
2023/12/14 00:38:25;;;;;;;46.60;23.50;;;;;;;2.48;82.87;97710.84;108419;1257;94283;-72
2023/12/14 00:40:53;;;;;;;47.40;22.80;;;;;;;2.46;82.65;97712.17;108403;1257;110573;-72
2023/12/14 00:43:21;;;;;;;49.50;23.70;;;;;;;2.44;82.62;97713.88;108379;1257;95459;-72
2023/12/14 00:45:49;;;;;;;48.00;22.70;;;;;;;2.44;82.96;97713.94;108348;1257;107502;-72
2023/12/14 00:48:17;;;;;;;56.20;23.60;;;;;;;2.44;82.92;97716.02;108366;1257;94299;-72
2023/12/14 00:50:45;;;;;;;57.80;26.40;;;;;;;2.45;82.91;97719.27;108456;1257;94206;-72
2023/12/14 00:53:13;;;;;;;50.50;23.90;;;;;;;2.45;82.94;97717.88;108366;1257;110004;-72
2023/12/14 00:55:41;;;;;;;52.00;24.40;;;;;;;2.43;82.71;97725.17;108412;1257;94425;-72
2023/12/14 00:58:09;;;;;;;51.10;25.40;;;;;;;2.44;82.93;97726.70;108289;1257;106411;-72
2023/12/14 01:00:37;;;;;;;53.90;25.10;;;;;;;2.43;82.69;97723.75;108378;1257;94561;-72
2023/12/14 01:03:05;;;;;;;63.80;25.90;;;;;;;2.44;82.76;97722.13;108411;1257;94337;-72
2023/12/14 01:05:33;;;;;;;65.30;27.30;;;;;;;2.39;82.67;97720.67;108411;1257;110546;-72
2023/12/14 01:08:00;;;;;;;62.40;25.30;;;;;;;2.36;83.01;97720.67;108414;1257;95434;-72
2023/12/14 01:10:28;;;;;;;70.70;27.80;;;;;;;2.35;83.12;97724.63;108292;1257;107740;-72
2023/12/14 01:12:56;;;;;;;69.30;26.20;;;;;;;2.36;83.03;97722.60;108304;1257;94622;-72
2023/12/14 01:15:24;;;;;;;78.40;28.90;;;;;;;2.35;82.88;97726.52;108393;1257;94370;-71
2023/12/14 01:17:52;;;;;;;63.40;27.60;;;;;;;2.33;83.00;97729.25;108393;1257;109245;-72
2023/12/14 01:20:20;;;;;;;77.50;26.90;;;;;;;2.36;82.96;97729.65;108410;1256;94980;-72
2023/12/14 01:22:47;;;;;;;81.30;27.50;;;;;;;2.36;82.94;97727.30;108357;1257;107352;-72
2023/12/14 01:25:15;;;;;;;70.90;26.20;;;;;;;2.33;82.88;97727.88;108421;1257;94486;-72
2023/12/14 01:27:43;;;;;;;63.30;24.30;;;;;;;2.30;83.03;97728.71;108358;1257;94244;-72
2023/12/14 01:30:11;;;;;;;91.80;26.90;;;;;;;2.32;83.09;97732.50;108385;1258;109401;-71
2023/12/14 01:32:39;;;;;;;71.10;27.20;;;;;;;2.27;82.95;97732.97;108382;1257;95303;-72
2023/12/14 01:35:07;;;;;;;69.20;25.80;;;;;;;2.26;83.16;97732.48;108354;1257;107716;-72
2023/12/14 01:37:35;;;;;;;68.90;25.30;;;;;;;2.29;83.14;97735.48;108440;1257;94253;-72
2023/12/14 01:40:04;;;;;;;79.00;28.20;;;;;;;2.26;83.06;97733.52;108314;1257;94254;-72
2023/12/14 01:42:32;;;;;;;81.90;27.30;;;;;;;2.25;82.76;97736.05;108365;1257;109930;-72
2023/12/14 01:45:00;;;;;;;70.20;28.00;;;;;;;2.24;82.98;97735.25;108343;1257;95587;-72
2023/12/14 01:47:28;;;;;;;63.10;25.50;;;;;;;2.20;82.97;97738.81;108393;1256;107562;-72
2023/12/14 01:49:56;;;;;;;68.90;26.00;;;;;;;2.16;83.06;97737.94;108365;1257;94219;-72
2023/12/14 01:52:24;;;;;;;76.10;24.90;;;;;;;2.18;83.02;97742.05;108364;1257;94670;-72
2023/12/14 01:54:52;;;;;;;65.70;24.80;;;;;;;2.21;83.22;97746.95;108290;1257;109457;-71
2023/12/14 01:57:20;;;;;;;63.80;24.90;;;;;;;2.20;82.91;97748.05;108289;1257;95451;-72
2023/12/14 01:59:48;;;;;;;60.80;25.00;;;;;;;2.17;83.12;97751.04;108318;1257;107030;-71
2023/12/14 02:02:16;;;;;;;58.00;23.90;;;;;;;2.17;83.02;97753.66;108355;1258;94564;-72
2023/12/14 02:04:44;;;;;;;52.10;24.30;;;;;;;2.18;83.21;97750.77;108353;1257;94362;-72
2023/12/14 02:07:12;;;;;;;53.70;22.90;;;;;;;2.19;83.11;97750.91;108200;1257;109613;-72
2023/12/14 02:09:40;;;;;;;55.90;23.50;;;;;;;2.22;83.07;97752.83;108347;1257;95275;-72
2023/12/14 02:12:07;;;;;;;57.10;23.20;;;;;;;2.25;82.90;97751.59;108289;1257;107589;-72
2023/12/14 02:14:35;;;;;;;71.10;25.90;;;;;;;2.27;83.20;97752.22;108377;1258;94631;-72
2023/12/14 02:17:04;;;;;;;68.30;25.40;;;;;;;2.27;83.06;97757.26;108352;1257;94382;-72
2023/12/14 02:19:32;;;;;;;68.10;24.40;;;;;;;2.26;82.95;97759.45;108305;1257;109949;-72
2023/12/14 02:22:00;;;;;;;60.50;25.00;;;;;;;2.26;83.40;97763.93;108341;1257;95208;-72
2023/12/14 02:24:28;;;;;;;62.10;25.10;;;;;;;2.26;83.38;97766.04;108278;1257;108074;-72
2023/12/14 02:26:56;;;;;;;77.80;23.50;;;;;;;2.28;83.35;97767.73;108361;1260;94251;-72
2023/12/14 02:29:31;;;;;;;77.80;23.30;;;;;;;2.29;83.13;97769.00;108445;1257;94270;-72
2023/12/14 02:31:59;;;;;;;74.90;25.10;;;;;;;2.27;82.94;97769.67;108403;1258;109937;-72
2023/12/14 02:34:27;;;;;;;67.70;25.30;;;;;;;2.26;83.21;97770.29;108292;1257;94728;-73
2023/12/14 02:36:55;;;;;;;65.30;23.40;;;;;;;2.26;83.38;97773.26;108388;1257;107232;-72
2023/12/14 02:39:22;;;;;;;75.90;26.60;;;;;;;2.27;83.43;97772.64;108354;1257;94581;-72
2023/12/14 02:41:50;;;;;;;59.20;23.40;;;;;;;2.29;83.18;97768.69;108373;1257;94605;-72
2023/12/14 02:44:18;;;;;;;77.00;25.10;;;;;;;2.30;83.32;97773.51;108347;1257;109899;-72
2023/12/14 02:46:46;;;;;;;76.50;25.00;;;;;;;2.31;83.01;97770.67;108428;1257;95070;-72
2023/12/14 02:49:14;;;;;;;73.80;26.40;;;;;;;2.32;83.28;97770.63;108424;1256;108236;-73
2023/12/14 02:51:42;;;;;;;64.80;22.70;;;;;;;2.34;83.17;97771.89;108362;1256;94202;-72
2023/12/14 02:54:10;;;;;;;81.60;26.40;;;;;;;2.34;83.41;97772.41;108357;1257;94370;-72
2023/12/14 02:56:38;;;;;;;84.20;25.20;;;;;;;2.32;83.24;97780.05;108377;1257;109832;-72
2023/12/14 02:59:05;;;;;;;77.10;26.70;;;;;;;2.34;83.23;97787.08;108353;1257;95206;-72
2023/12/14 03:01:33;;;;;;;68.50;24.20;;;;;;;2.33;82.91;97790.67;108288;1257;107312;-72
2023/12/14 03:04:01;;;;;;;80.90;24.20;;;;;;;2.32;83.10;97793.01;108426;1257;94484;-72
2023/12/14 03:06:29;;;;;;;80.40;25.70;;;;;;;2.31;83.30;97797.74;108298;1257;94573;-72
2023/12/14 03:08:57;;;;;;;73.80;26.20;;;;;;;2.30;83.08;97797.51;108363;1257;109654;-73
2023/12/14 03:11:25;;;;;;;80.20;28.30;;;;;;;2.29;83.28;97796.86;108417;1257;95151;-72
2023/12/14 03:13:53;;;;;;;136.40;76.40;;;;;;;2.29;83.43;97798.94;108279;1257;107687;-72
2023/12/14 03:16:21;;;;;;;91.80;32.20;;;;;;;2.28;83.03;97793.79;108371;1257;94296;-72
2023/12/14 03:18:52;;;;;;;84.00;27.80;;;;;;;2.30;83.23;97788.59;108406;1257;94231;-72
2023/12/14 03:21:21;;;;;;;79.30;25.50;;;;;;;2.26;83.19;97783.88;108295;1257;109861;-72
2023/12/14 03:23:51;;;;;;;120.40;23.80;;;;;;;2.27;83.40;97779.83;108427;1257;94622;-72
2023/12/14 03:26:19;;;;;;;76.60;25.20;;;;;;;2.28;83.08;97785.02;108257;1257;107631;-72
2023/12/14 03:28:47;;;;;;;84.40;25.80;;;;;;;2.26;83.12;97782.33;108355;1257;94257;-72
2023/12/14 03:31:15;;;;;;;72.00;22.80;;;;;;;2.25;83.26;97786.27;108418;1259;94269;-71
2023/12/14 03:33:43;;;;;;;95.80;23.40;;;;;;;2.23;83.33;97787.58;108307;1257;108704;-73
2023/12/14 03:36:11;;;;;;;62.50;22.60;;;;;;;2.20;83.29;97793.34;108349;1257;94386;-74
2023/12/14 03:38:39;;;;;;;70.80;26.10;;;;;;;2.16;83.40;97800.05;108415;1257;107349;-72
2023/12/14 03:41:07;;;;;;;69.60;21.90;;;;;;;2.16;83.52;97803.71;108344;1258;94570;-72
2023/12/14 03:43:35;;;;;;;66.40;23.80;;;;;;;2.16;83.29;97799.54;108381;1257;94789;-72
2023/12/14 03:46:05;;;;;;;66.50;23.90;;;;;;;2.14;83.43;97802.80;108306;1257;110827;-72
2023/12/14 03:48:34;;;;;;;70.20;24.30;;;;;;;2.13;83.24;97805.67;108321;1257;95718;-69
2023/12/14 03:51:03;;;;;;;84.70;23.10;;;;;;;2.13;83.33;97806.54;108248;1258;106211;-69
2023/12/14 03:53:31;;;;;;;63.40;21.90;;;;;;;2.10;83.11;97812.15;108275;1257;94566;-69
2023/12/14 03:56:00;;;;;;;66.50;24.70;;;;;;;2.11;83.44;97820.98;108414;1257;94376;-69
2023/12/14 03:58:28;;;;;;;73.00;27.70;;;;;;;2.13;83.53;97824.75;108265;1257;109328;-69
2023/12/14 04:00:56;;;;;;;74.30;28.60;;;;;;;2.12;83.40;97834.04;108302;1257;95496;-74
2023/12/14 04:03:23;;;;;;;96.20;35.10;;;;;;;2.11;83.31;97835.16;108336;1257;107520;-72
2023/12/14 04:05:52;;;;;;;68.80;26.30;;;;;;;2.09;83.14;97842.98;108410;1257;94266;-75
2023/12/14 04:08:20;;;;;;;120.20;45.90;;;;;;;2.07;83.49;97843.07;108363;1257;94594;-73
2023/12/14 04:10:48;;;;;;;82.70;33.00;;;;;;;2.03;83.32;97845.74;108349;1258;109351;-71
2023/12/14 04:13:16;;;;;;;346.00;144.00;;;;;;;2.04;83.05;97850.25;108400;1257;95335;-70
2023/12/14 04:15:44;;;;;;;284.30;110.70;;;;;;;2.06;83.48;97850.97;108342;1257;107588;-70
2023/12/14 04:18:12;;;;;;;192.00;81.00;;;;;;;2.04;83.25;97853.35;108372;1256;95075;-70
2023/12/14 04:20:40;;;;;;;133.10;49.90;;;;;;;2.06;83.56;97852.58;108292;1259;94501;-72
2023/12/14 04:23:08;;;;;;;125.10;48.90;;;;;;;2.09;83.35;97856.42;108334;1258;110024;-72
2023/12/14 04:25:36;;;;;;;238.60;87.70;;;;;;;2.09;83.27;97862.39;108265;1258;95280;-72
2023/12/14 04:28:03;;;;;;;289.90;108.20;;;;;;;2.05;83.37;97864.14;108260;1257;107391;-72
2023/12/14 04:30:32;;;;;;;348.90;153.50;;;;;;;2.04;83.40;97864.59;108298;1258;94711;-71
2023/12/14 04:33:00;;;;;;;225.60;102.80;;;;;;;2.06;83.15;97871.59;108159;1257;94633;-71
2023/12/14 04:35:28;;;;;;;102.30;42.40;;;;;;;2.06;83.52;97877.41;108292;1257;109595;-73
2023/12/14 04:37:56;;;;;;;116.80;47.00;;;;;;;2.02;83.26;97876.05;108255;1258;96004;-72
2023/12/14 04:40:24;;;;;;;162.80;85.90;;;;;;;2.04;83.51;97878.73;108267;1260;107128;-72
2023/12/14 04:42:51;;;;;;;135.70;67.50;;;;;;;2.01;83.09;97880.70;108306;1258;94391;-72
2023/12/14 04:45:19;;;;;;;91.90;38.80;;;;;;;2.00;83.39;97886.16;108307;1257;94571;-73
2023/12/14 04:47:47;;;;;;;78.20;30.90;;;;;;;2.00;83.41;97887.20;108309;1257;110059;-72
2023/12/14 04:50:15;;;;;;;74.80;32.30;;;;;;;1.93;83.25;97887.02;108299;1259;95528;-72
2023/12/14 04:52:43;;;;;;;78.70;32.60;;;;;;;1.90;83.67;97892.61;108250;1257;109395;-72
2023/12/14 04:55:11;;;;;;;65.70;26.70;;;;;;;1.91;83.49;97900.45;108280;1259;94370;-73
2023/12/14 04:57:39;;;;;;;74.40;29.60;;;;;;;1.91;83.60;97904.27;108395;1258;94655;-72
2023/12/14 05:00:07;;;;;;;63.10;26.80;;;;;;;1.94;83.73;97910.58;108311;1257;109567;-71
2023/12/14 05:02:35;;;;;;;66.60;28.70;;;;;;;1.98;83.27;97911.45;108366;1257;95239;-72
2023/12/14 05:05:04;;;;;;;79.10;31.50;;;;;;;2.01;83.57;97914.92;108415;1257;107641;-72
2023/12/14 05:07:32;;;;;;;63.50;28.00;;;;;;;1.98;83.18;97915.64;108418;1257;94530;-74
2023/12/14 05:10:00;;;;;;;65.80;27.80;;;;;;;1.93;83.07;97916.58;108398;1257;94242;-72
2023/12/14 05:12:29;;;;;;;66.90;29.10;;;;;;;1.89;83.30;97921.01;108368;1257;112231;-73
2023/12/14 05:14:57;;;;;;;65.20;26.40;;;;;;;1.88;83.47;97923.67;108340;1258;95229;-74
2023/12/14 05:17:25;;;;;;;66.70;27.70;;;;;;;1.89;83.32;97929.40;108363;1258;107202;-74
2023/12/14 05:19:53;;;;;;;69.20;25.60;;;;;;;1.91;83.71;97931.56;108385;1257;94267;-74
2023/12/14 05:22:20;;;;;;;121.40;49.70;;;;;;;1.87;83.34;97933.73;108337;1257;94297;-74
2023/12/14 05:24:48;;;;;;;104.00;38.60;;;;;;;1.87;83.24;97941.25;108293;1257;109941;-73
2023/12/14 05:27:16;;;;;;;173.60;61.40;;;;;;;1.92;83.58;97941.98;108430;1257;94688;-74
2023/12/14 05:29:44;;;;;;;254.40;97.70;;;;;;;1.94;83.31;97948.89;108378;1257;107813;-74
2023/12/14 05:32:12;;;;;;;140.10;52.90;;;;;;;1.97;83.45;97955.90;108444;1257;94281;-74
2023/12/14 05:34:40;;;;;;;104.30;42.70;;;;;;;2.00;83.40;97953.12;108404;1258;94330;-73
2023/12/14 05:37:08;;;;;;;156.90;57.60;;;;;;;2.03;83.58;97958.36;108341;1257;109986;-73
2023/12/14 05:39:35;;;;;;;104.90;38.90;;;;;;;2.04;83.67;97962.46;108380;1258;95317;-73
2023/12/14 05:42:03;;;;;;;97.50;32.70;;;;;;;2.05;83.40;97962.79;108240;1257;106703;-73
2023/12/14 05:44:31;;;;;;;264.40;72.20;;;;;;;2.02;83.55;97970.16;108370;1256;94544;-74
2023/12/14 05:46:59;;;;;;;92.10;33.40;;;;;;;1.96;83.18;97972.55;108367;1257;94383;-73
2023/12/14 05:49:27;;;;;;;119.70;37.80;;;;;;;1.96;83.32;97974.97;108349;1261;110050;-73
2023/12/14 05:51:55;;;;;;;142.30;44.90;;;;;;;1.92;83.40;97979.08;108318;1257;95430;-73
2023/12/14 05:54:23;;;;;;;116.00;42.80;;;;;;;1.88;83.42;97986.96;108237;1256;107559;-74
2023/12/14 05:56:51;;;;;;;136.10;42.30;;;;;;;1.87;83.58;97994.19;108379;1257;94659;-74
2023/12/14 05:59:19;;;;;;;72.10;27.10;;;;;;;1.86;83.04;98001.60;108248;1257;94247;-74
2023/12/14 06:01:47;;;;;;;55.00;22.20;;;;;;;1.87;83.31;98008.33;108351;1257;107765;-74
2023/12/14 06:04:15;;;;;;;56.20;21.20;;;;;;;1.89;83.49;98010.34;108291;1257;95065;-73
2023/12/14 06:06:43;;;;;;;62.00;23.30;;;;;;;1.90;83.29;98011.69;108336;1257;107978;-74
2023/12/14 06:09:11;;;;;;;70.40;26.20;;;;;;;1.91;83.69;98008.83;108367;1257;94398;-74
2023/12/14 06:11:39;;;;;;;71.00;26.60;;;;;;;1.94;83.35;98014.83;108416;1257;94233;-73
2023/12/14 06:14:07;;;;;;;69.80;28.00;;;;;;;1.97;83.46;98025.65;108367;1258;109469;-75
2023/12/14 06:16:35;;;;;;;83.50;30.60;;;;;;;1.97;83.64;98029.34;108412;1258;94709;-76
2023/12/14 06:19:02;;;;;;;159.40;69.60;;;;;;;1.93;83.39;98028.66;108383;1257;107508;-76
2023/12/14 06:21:31;;;;;;;93.60;44.90;;;;;;;1.95;83.77;98033.66;108414;1257;94315;-76
2023/12/14 06:23:59;;;;;;;77.50;38.30;;;;;;;1.98;83.58;98035.41;108373;1257;94647;-74
2023/12/14 06:26:27;;;;;;;106.70;39.30;;;;;;;2.03;83.57;98038.25;108329;1257;109201;-77
2023/12/14 06:28:56;;;;;;;147.50;50.50;;;;;;;2.08;83.69;98043.42;108422;1257;95709;-74
2023/12/14 06:31:24;;;;;;;123.10;42.30;;;;;;;2.10;83.71;98044.55;108259;1258;106914;-75
2023/12/14 06:33:52;;;;;;;99.30;34.70;;;;;;;2.10;83.54;98044.35;108313;1259;94600;-75
2023/12/14 06:36:21;;;;;;;107.10;37.80;;;;;;;2.11;83.48;98049.75;108495;1256;94295;-75
2023/12/14 06:38:49;;;;;;;108.60;39.90;;;;;;;2.11;83.55;98052.70;108295;1257;109992;-75
2023/12/14 06:41:21;;;;;;;75.30;29.40;;;;;;;2.10;83.26;98058.03;108354;1257;94338;-76
2023/12/14 06:43:49;;;;;;;67.20;27.60;;;;;;;2.11;83.50;98064.61;108258;1257;107086;-75
2023/12/14 06:46:18;;;;;;;105.80;43.00;;;;;;;2.13;83.27;98071.52;108413;1257;94215;-76
2023/12/14 06:48:46;;;;;;;79.40;33.30;;;;;;;2.13;83.55;98076.06;108439;1257;94984;-75
2023/12/14 06:51:14;;;;;;;82.50;36.00;;;;;;;2.13;83.33;98080.59;108478;1257;109830;-75
2023/12/14 06:53:43;;;;;;;72.30;31.20;;;;;;;2.14;83.32;98082.98;108455;1256;95271;-75
2023/12/14 06:56:11;;;;;;;68.30;31.70;;;;;;;2.16;83.47;98082.70;108441;1258;107268;-75
2023/12/14 06:58:41;;;;;;;62.40;30.70;;;;;;;2.17;83.49;98080.91;108326;1257;94358;-75
2023/12/14 07:01:14;;;;;;;65.10;30.00;;;;;;;2.20;83.55;98082.99;108325;1257;94313;-75
2023/12/14 07:03:44;;;;;;;55.40;25.80;;;;;;;2.20;83.46;98082.16;108307;1257;109646;-75
2023/12/14 07:06:13;;;;;;;72.30;31.80;;;;;;;2.20;83.81;98082.30;108309;1259;96000;-75
2023/12/14 07:08:41;;;;;;;55.50;26.90;;;;;;;2.26;83.50;98088.29;108353;1257;107351;-75
2023/12/14 07:11:11;;;;;;;69.50;39.80;;;;;;;2.30;83.73;98086.30;108399;1257;94293;-76
2023/12/14 07:13:40;;;;;;;80.10;43.50;;;;;;;2.30;83.60;98090.00;108388;1258;94225;-75
2023/12/14 07:16:09;;;;;;;67.80;37.00;;;;;;;2.27;83.60;98091.73;108309;1258;110277;-75
2023/12/14 07:18:39;;;;;;;103.80;48.70;;;;;;;2.24;83.50;98096.25;108428;1257;95127;-75
2023/12/14 07:21:08;;;;;;;68.00;31.90;;;;;;;2.25;83.53;98102.68;108413;1257;107763;-75
2023/12/14 07:23:36;;;;;;;70.50;34.70;;;;;;;2.28;83.63;98109.51;108381;1257;94312;-75
2023/12/14 07:26:04;;;;;;;62.30;31.40;;;;;;;2.27;83.55;98113.23;108429;1257;94344;-75
2023/12/14 07:28:35;;;;;;;59.10;29.00;;;;;;;2.27;83.71;98116.95;108445;1257;109500;-75
2023/12/14 07:31:03;;;;;;;56.80;28.00;;;;;;;2.27;83.37;98122.35;108429;1257;94400;-75
2023/12/14 07:33:31;;;;;;;57.50;26.50;;;;;;;2.29;83.73;98122.76;108258;1258;107663;-76
2023/12/14 07:35:59;;;;;;;58.50;27.70;;;;;;;2.29;83.69;98126.96;108299;1257;94231;-75
2023/12/14 07:38:27;;;;;;;69.10;32.20;;;;;;;2.29;83.43;98128.55;108446;1257;94483;-75
2023/12/14 07:40:55;;;;;;;63.60;32.30;;;;;;;2.27;83.43;98133.35;108406;1257;109361;-75
2023/12/14 07:43:23;;;;;;;66.40;31.20;;;;;;;2.26;83.41;98135.36;108397;1257;95626;-75
2023/12/14 07:45:51;;;;;;;60.70;30.40;;;;;;;2.28;83.56;98133.29;108338;1260;106820;-76
2023/12/14 07:48:19;;;;;;;57.70;26.70;;;;;;;2.31;83.49;98135.77;108302;1257;94690;-75
2023/12/14 07:50:48;;;;;;;59.10;26.80;;;;;;;2.34;83.70;98137.86;108433;1257;94250;-76
2023/12/14 07:53:16;;;;;;;55.40;25.30;;;;;;;2.35;83.68;98138.70;108389;1259;110514;-75
2023/12/14 07:55:44;;;;;;;64.30;29.20;;;;;;;2.36;83.39;98143.56;108410;1257;95208;-75
2023/12/14 07:58:13;;;;;;;63.80;29.80;;;;;;;2.34;83.62;98151.73;108371;1258;107987;-74
2023/12/14 08:00:41;;;;;;;75.40;34.90;;;;;;;2.32;83.50;98163.38;108257;1257;94307;-74
2023/12/14 08:03:08;;;;;;;61.20;30.40;;;;;;;2.29;83.48;98166.30;108451;1257;94685;-77
2023/12/14 08:05:37;;;;;;;77.80;40.90;;;;;;;2.29;83.63;98171.93;108255;1257;109312;-76
2023/12/14 08:08:05;;;;;;;74.50;34.80;;;;;;;2.31;83.48;98174.27;108229;1258;95350;-77
2023/12/14 08:10:33;;;;;;;81.70;40.50;;;;;;;2.30;83.58;98178.02;108403;1257;107657;-74
2023/12/14 08:13:00;;;;;;;66.90;30.80;;;;;;;2.30;83.59;98180.80;108412;1257;94716;-75
2023/12/14 08:15:29;;;;;;;66.40;28.30;;;;;;;2.33;83.53;98186.41;108441;1257;94295;-74
2023/12/14 08:17:57;;;;;;;61.40;28.20;;;;;;;2.34;83.58;98193.38;108454;1257;110340;-78
2023/12/14 08:20:25;;;;;;;62.40;30.80;;;;;;;2.34;83.59;98196.31;108427;1257;95454;-75
2023/12/14 08:22:53;;;;;;;70.80;33.80;;;;;;;2.33;83.55;98203.74;108420;1257;106755;-74
2023/12/14 08:25:21;;;;;;;76.40;34.10;;;;;;;2.30;83.42;98203.52;108317;1259;94687;-75
2023/12/14 08:27:50;;;;;;;81.90;40.60;;;;;;;2.28;83.36;98213.47;108350;1261;94271;-76
2023/12/14 08:30:18;;;;;;;67.60;32.40;;;;;;;2.26;83.73;98218.80;108299;1258;110083;-74
2023/12/14 08:32:46;;;;;;;82.40;39.60;;;;;;;2.27;83.69;98223.98;108403;1259;94545;-75
2023/12/14 08:35:14;;;;;;;71.80;35.10;;;;;;;2.30;83.49;98223.48;108375;1258;107663;-76
2023/12/14 08:37:43;;;;;;;64.70;30.10;;;;;;;2.33;83.70;98225.40;108381;1257;94745;-75
2023/12/14 08:40:12;;;;;;;65.50;30.20;;;;;;;2.37;83.73;98223.45;108396;1258;94281;-75
2023/12/14 08:42:39;;;;;;;61.10;30.10;;;;;;;2.40;83.61;98230.84;108430;1258;108409;-75
2023/12/14 08:45:08;;;;;;;66.10;32.20;;;;;;;2.42;83.57;98236.00;108401;1257;95347;-75
2023/12/14 08:47:39;;;;;;;61.10;28.40;;;;;;;2.40;83.64;98246.79;108436;1258;107748;-77
2023/12/14 08:50:08;;;;;;;63.00;29.60;;;;;;;2.40;83.80;98255.15;108376;1258;94332;-76
2023/12/14 08:52:36;;;;;;;59.30;31.40;;;;;;;2.43;83.68;98256.92;108438;1261;94248;-75
2023/12/14 08:55:05;;;;;;;55.70;26.80;;;;;;;2.41;83.55;98256.85;108388;1257;110702;-75
2023/12/14 08:57:34;;;;;;;57.20;27.50;;;;;;;2.42;83.92;98259.27;108461;1257;95414;-75
2023/12/14 09:00:06;;;;;;;60.10;29.70;;;;;;;2.44;83.64;98257.94;108306;1257;107333;-76
2023/12/14 09:02:36;;;;;;;63.50;30.90;;;;;;;2.42;83.70;98261.20;108430;1257;94335;-78
2023/12/14 09:05:05;;;;;;;55.30;26.50;;;;;;;2.41;83.62;98265.42;108440;1258;94240;-75
2023/12/14 09:07:34;;;;;;;50.30;23.80;;;;;;;2.42;83.54;98267.88;108317;1257;109876;-74
2023/12/14 09:10:02;;;;;;;53.40;24.80;;;;;;;2.39;83.63;98271.48;108421;1257;94384;-74
2023/12/14 09:12:30;;;;;;;57.20;26.30;;;;;;;2.37;83.63;98276.14;108433;1258;106765;-75
2023/12/14 09:14:58;;;;;;;53.80;25.00;;;;;;;2.36;83.37;98280.25;108431;1257;94384;-74
2023/12/14 09:17:31;;;;;;;54.10;26.20;;;;;;;2.36;83.82;98290.48;108438;1257;94228;-75
2023/12/14 09:20:05;;;;;;;55.80;28.60;;;;;;;2.38;83.63;98292.89;108404;1261;109883;-74
2023/12/14 09:22:33;;;;;;;47.40;22.10;;;;;;;2.38;83.76;98293.74;108302;1257;94526;-74
2023/12/14 09:25:01;;;;;;;56.10;25.20;;;;;;;2.39;83.79;98295.28;108405;1257;107474;-75
2023/12/14 09:27:29;;;;;;;55.10;25.00;;;;;;;2.38;83.66;98295.47;108380;1257;94641;-73
2023/12/14 09:29:57;;;;;;;57.10;25.70;;;;;;;2.39;83.55;98297.05;108443;1257;94169;-73
2023/12/14 09:32:25;;;;;;;56.30;23.70;;;;;;;2.42;83.51;98299.14;108485;1257;108514;-77
2023/12/14 09:34:56;;;;;;;59.90;25.60;;;;;;;2.45;83.55;98300.76;108422;1257;95047;-73
2023/12/14 09:37:24;;;;;;;49.10;22.00;;;;;;;2.48;83.92;98306.02;108414;1258;105906;-74
2023/12/14 09:39:52;;;;;;;49.50;21.30;;;;;;;2.47;83.52;98303.95;108395;1257;94268;-73
2023/12/14 09:42:20;;;;;;;50.40;22.70;;;;;;;2.48;83.69;98304.41;108452;1257;94247;-74
2023/12/14 09:44:48;;;;;;;48.30;23.10;;;;;;;2.49;83.62;98303.88;108299;1257;109791;-73
2023/12/14 09:47:16;;;;;;;46.20;21.40;;;;;;;2.47;83.42;98308.35;108470;1257;95496;-74
2023/12/14 09:49:45;;;;;;;47.70;21.50;;;;;;;2.48;83.56;98314.25;108400;1257;107582;-73
2023/12/14 09:52:13;;;;;;;46.30;20.40;;;;;;;2.48;83.63;98319.46;108347;1257;94563;-73
2023/12/14 09:54:41;;;;;;;38.60;17.60;;;;;;;2.48;83.64;98316.52;108436;1257;94231;-73
2023/12/14 09:57:09;;;;;;;36.80;17.40;;;;;;;2.49;83.41;98316.46;108370;1257;109474;-74
2023/12/14 09:59:37;;;;;;;38.40;18.40;;;;;;;2.48;83.62;98318.45;108434;1257;95496;-74
2023/12/14 10:02:11;;;;;;;40.40;19.20;;;;;;;2.47;83.64;98317.98;108296;1257;107603;-73
2023/12/14 10:04:39;;;;;;;36.50;18.10;;;;;;;2.40;83.33;98322.73;108222;1257;94272;-75
2023/12/14 10:07:07;;;;;;;39.70;18.90;;;;;;;2.38;83.71;98325.98;108304;1257;94277;-76
2023/12/14 10:09:37;;;;;;;36.80;17.60;;;;;;;2.36;83.79;98325.20;108382;1257;109895;-74
2023/12/14 10:12:08;;;;;;;38.30;19.40;;;;;;;2.33;83.69;98325.33;108413;1257;95327;-73
2023/12/14 10:14:37;;;;;;;40.50;18.70;;;;;;;2.34;83.79;98330.70;108270;1257;107403;-73
2023/12/14 10:17:18;;;;;;;45.00;21.50;;;;;;;2.36;83.83;98334.77;108418;1257;94218;-78
2023/12/14 10:19:47;;;;;;;42.20;19.80;;;;;;;2.36;83.59;98332.69;108393;1257;94348;-73
2023/12/14 10:22:17;;;;;;;43.10;20.00;;;;;;;2.36;83.60;98336.20;108305;1257;110057;-75
2023/12/14 10:24:49;;;;;;;47.00;22.20;;;;;;;2.36;83.63;98335.35;108399;1257;94492;-73
2023/12/14 10:27:17;;;;;;;46.90;20.10;;;;;;;2.39;83.53;98338.33;108294;1257;107310;-73
2023/12/14 10:29:46;;;;;;;40.10;19.30;;;;;;;2.42;83.63;98337.67;108391;1257;94538;-74
2023/12/14 10:32:14;;;;;;;37.20;17.70;;;;;;;2.43;83.53;98333.94;108385;1257;94369;-73
2023/12/14 10:34:42;;;;;;;49.90;21.40;;;;;;;2.42;83.53;98329.28;108306;1257;108265;-73
2023/12/14 10:37:12;;;;;;;38.10;16.80;;;;;;;2.41;83.87;98337.00;108436;1257;95746;-76
2023/12/14 10:39:42;;;;;;;41.80;18.60;;;;;;;2.45;83.68;98339.08;108348;1257;107441;-73
2023/12/14 10:42:10;;;;;;;43.30;18.70;;;;;;;2.48;83.48;98344.52;108403;1257;94260;-77
2023/12/14 10:44:52;;;;;;;43.60;19.10;;;;;;;2.48;83.68;98341.70;108392;1257;94219;-73
2023/12/14 10:47:23;;;;;;;47.10;21.50;;;;;;;2.50;83.81;98347.23;108409;1257;108445;-73
2023/12/14 10:49:51;;;;;;;38.10;17.10;;;;;;;2.53;83.88;98343.54;108380;1257;94836;-73
2023/12/14 10:52:22;;;;;;;43.30;19.30;;;;;;;2.57;83.77;98349.34;108349;1257;107224;-73
2023/12/14 10:55:00;;;;;;;46.20;19.50;;;;;;;2.54;83.57;98352.63;108404;1257;94440;-79
2023/12/14 10:57:28;;;;;;;38.70;17.70;;;;;;;2.52;83.52;98354.48;108387;1257;94188;-74
2023/12/14 11:00:01;;;;;;;44.40;19.60;;;;;;;2.54;83.40;98357.52;108420;1257;109796;-74
2023/12/14 11:03:36;;;;;;;45.80;21.00;;;;;;;2.56;83.79;98363.89;102393;1290;636836;-74
2023/12/14 11:06:22;;;;;;;45.90;21.60;;;;;;;2.60;83.82;98367.73;104805;1263;94370;-75
2023/12/14 11:08:55;;;;;;;44.20;21.40;;;;;;;2.61;83.68;98369.06;104825;1270;94293;-74
2023/12/14 11:11:28;;;;;;;46.70;23.70;;;;;;;2.61;83.72;98368.05;104521;1266;106948;-75
2023/12/14 11:13:56;;;;;;;42.00;22.70;;;;;;;2.60;83.68;98368.44;104558;1264;95230;-77
2023/12/14 11:16:30;;;;;;;43.20;20.70;;;;;;;2.61;83.89;98368.92;104398;1267;139998;-75
2023/12/14 11:19:23;;;;;;;43.70;20.30;;;;;;;2.62;83.86;98371.13;104820;1264;94792;-78